»·PEaware :: N9273T KBUR-KLAS

N9273T :: KBUR-KLAS

FLIGHT INFORMATION

Flight Status: Arrived
Operator: Privately registered:
United States
More flights under this callsign
Pilot: Jim L. (28297)
Aircraft: SOCATA TBM-900
(TBM9)
More flights by this aircraft type
Origin: KBUR Bob Hope-Burbank
United States
Destination: KLAS McCarran Intl
United States
More flights between these airports :: More routes between these airports
Route: +VNY3 DAG CRESO4
File this flight plan on PilotEdge
Remarks: I-5 RATING
Altitude:
(Current/Filed)
27,000ft
Speed:
(Current/Filed)
200kts
Departed: 20-May-20 05:55 PM
Arrived: 20-May-20 06:56 PM
Distance/Time
Traveled:
193nm/1:01
Distance/Time
To Go:
Arrived

Flight Plot

Page will automatically refresh every two minutes.


Map Options




Map Legend


Flown Route
Filed Route
Departure Airport
Arrival Airport
Navaid (VOR, NDB)
Fix

Horizontal Profiles

Position Reports

Time Latitude Longitude Heading Altitude Ground
Speed
20-May-20 17:14 34.200268 -118.362785 220 778ft 0kts
20-May-20 17:15 34.200268 -118.362785 220 778ft 0kts
20-May-20 17:16 34.200268 -118.362785 220 778ft 0kts
20-May-20 17:17 34.200268 -118.362785 220 778ft 0kts
20-May-20 17:18 34.200268 -118.362785 220 778ft 0kts
20-May-20 17:19 34.200268 -118.362785 220 778ft 0kts
20-May-20 17:20 34.200268 -118.362785 220 778ft 0kts
20-May-20 17:21 34.200268 -118.362785 220 778ft 0kts
20-May-20 17:22 34.200268 -118.362785 220 778ft 0kts
20-May-20 17:23 34.200268 -118.362785 220 778ft 0kts
20-May-20 17:24 34.200268 -118.362785 220 778ft 0kts
20-May-20 17:25 34.200268 -118.362785 220 778ft 0kts
20-May-20 17:26 34.200268 -118.362785 220 778ft 0kts
20-May-20 17:27 34.200268 -118.362785 220 778ft 0kts
20-May-20 17:28 34.200268 -118.362785 220 778ft 0kts
20-May-20 17:29 34.200268 -118.362785 220 778ft 0kts
20-May-20 17:30 34.200268 -118.362785 220 778ft 0kts
20-May-20 17:31 34.200268 -118.362785 220 778ft 0kts
20-May-20 17:32 34.200268 -118.362785 220 778ft 0kts
20-May-20 17:33 34.200268 -118.362785 220 778ft 0kts
20-May-20 17:34 34.200268 -118.362785 219 778ft 0kts
20-May-20 17:35 34.200268 -118.362785 219 778ft 0kts
20-May-20 17:36 34.200268 -118.362785 219 778ft 0kts
20-May-20 17:37 34.200268 -118.362785 219 778ft 0kts
20-May-20 17:38 34.200268 -118.362785 219 778ft 0kts
20-May-20 17:39 34.200268 -118.362785 219 778ft 0kts
20-May-20 17:40 34.200268 -118.362785 219 778ft 0kts
20-May-20 17:41 34.200268 -118.362785 219 778ft 0kts
20-May-20 17:42 34.200268 -118.362785 219 778ft 0kts
20-May-20 17:43 34.200268 -118.362785 219 778ft 0kts
20-May-20 17:44 34.200268 -118.362785 219 778ft 0kts
20-May-20 17:45 34.200268 -118.362785 219 778ft 0kts
20-May-20 17:46 34.200268 -118.362785 219 778ft 0kts
20-May-20 17:47 34.199695 -118.364551 179 778ft 6kts
20-May-20 17:48 34.198906 -118.361545 90 778ft 12kts
20-May-20 17:49 34.199633 -118.358113 346 778ft 11kts
20-May-20 17:50 34.204267 -118.359373 345 778ft 21kts
20-May-20 17:51 34.209424 -118.360803 347 778ft 16kts
20-May-20 17:52 34.211453 -118.361252 26 778ft 0kts
20-May-20 17:53 34.211790 -118.360370 130 778ft 15kts
20-May-20 17:54 34.196904 -118.355683 165 1245ft 126kts
20-May-20 17:55 34.166476 -118.373529 225 3727ft 133kts
20-May-20 17:56 34.131461 -118.415191 225 4021ft 198kts
20-May-20 17:57 34.158800 -118.453973 352 4170ft 208kts
20-May-20 17:58 34.216685 -118.460943 352 5691ft 210kts
20-May-20 17:59 34.270485 -118.467075 352 8154ft 185kts
20-May-20 18:00 34.316570 -118.458291 35 10446ft 181kts
20-May-20 18:01 34.356836 -118.423391 32 12511ft 178kts
20-May-20 18:02 34.397932 -118.388223 31 14432ft 186kts
20-May-20 18:03 34.440038 -118.352151 29 16777ft 189kts
20-May-20 18:04 34.478133 -118.308963 44 19184ft 194kts
20-May-20 18:05 34.511545 -118.255694 43 21363ft 205kts
20-May-20 18:06 34.546750 -118.199431 42 23553ft 215kts
20-May-20 18:07 34.583866 -118.140016 41 25673ft 226kts
20-May-20 18:08 34.623444 -118.076658 44 27053ft 262kts
20-May-20 18:09 34.641360 -117.975680 77 27034ft 333kts
20-May-20 18:10 34.653694 -117.860160 76 27014ft 350kts
20-May-20 18:11 34.669259 -117.743887 66 27018ft 342kts
20-May-20 18:12 34.697525 -117.633513 65 27030ft 341kts
20-May-20 18:13 34.725827 -117.522793 65 27036ft 342kts
20-May-20 18:14 34.754089 -117.411772 65 27021ft 342kts
20-May-20 18:15 34.782206 -117.300851 66 27010ft 342kts
20-May-20 18:17 34.810205 -117.189906 66 26998ft 342kts
20-May-20 18:18 34.838116 -117.079022 67 26979ft 342kts
20-May-20 18:19 34.866192 -116.966937 69 26974ft 348kts
20-May-20 18:20 34.894682 -116.852379 71 26976ft 357kts
20-May-20 18:21 34.923592 -116.735635 70 26976ft 359kts
20-May-20 18:22 34.952439 -116.618816 70 26925ft 359kts
20-May-20 18:23 34.993486 -116.508336 56 25354ft 340kts
20-May-20 18:24 35.036697 -116.411109 56 23888ft 312kts
20-May-20 18:25 35.076541 -116.321183 56 22537ft 297kts
20-May-20 18:26 35.115244 -116.233572 57 21239ft 289kts
20-May-20 18:27 35.153302 -116.147203 57 19965ft 285kts
20-May-20 18:28 35.190570 -116.062410 57 18711ft 281kts
20-May-20 18:29 35.227391 -115.978413 58 17468ft 278kts
20-May-20 18:30 35.263880 -115.894972 58 16235ft 275kts
20-May-20 18:30 35.293859 -115.826264 59 15221ft 273kts
20-May-20 18:32 35.344263 -115.742286 45 13844ft 255kts
20-May-20 18:33 35.392085 -115.678624 45 12722ft 251kts
20-May-20 18:33 35.431521 -115.625949 46 11795ft 249kts
20-May-20 18:34 35.478236 -115.563433 46 10696ft 247kts
20-May-20 18:36 35.531455 -115.492102 46 9984ft 229kts
20-May-20 18:36 35.566482 -115.445086 46 9988ft 218kts
20-May-20 18:37 35.608652 -115.388411 46 9994ft 232kts
20-May-20 18:38 35.653085 -115.328593 46 9991ft 238kts
20-May-20 18:39 35.697997 -115.268020 46 9990ft 239kts
20-May-20 18:40 35.743129 -115.207039 46 9990ft 240kts
20-May-20 18:41 35.792982 -115.155468 21 9990ft 235kts
20-May-20 18:42 35.852424 -115.125199 21 9974ft 221kts
20-May-20 18:43 35.908196 -115.096519 21 9976ft 218kts
20-May-20 18:44 35.965139 -115.066989 21 9971ft 222kts
20-May-20 18:45 36.023997 -115.048160 11 10457ft 203kts
20-May-20 18:46 36.075476 -115.031323 27 11531ft 191kts
20-May-20 18:47 36.123680 -114.996178 23 11261ft 234kts
20-May-20 18:48 36.186744 -114.957404 24 9778ft 265kts
20-May-20 18:49 36.256094 -114.931568 332 8038ft 268kts
20-May-20 18:50 36.257582 -115.007924 241 6944ft 235kts
20-May-20 18:51 36.219317 -115.063785 213 6522ft 209kts
20-May-20 18:52 36.173705 -115.110332 212 4306ft 213kts
20-May-20 18:53 36.127643 -115.136343 206 3022ft 133kts
20-May-20 18:54 36.096480 -115.154714 204 2199ft 76kts
20-May-20 18:55 36.088316 -115.160649 292 2184ft 0kts
20-May-20 18:56 36.089541 -115.163855 290 2184ft 10kts
20-May-20 18:57 36.089148 -115.165872 135 2184ft 0kts
20-May-20 18:58 36.089148 -115.165872 135 2184ft 0kts

Navigation Log

Ident Type
Flight plan parsing failed, navigation log unavailable